Home > Products > Valid Products > TAF

000
FTUS44 KBMX 201700 RRA
TAFEET
TAF
KEET 201740Z 2018/2118 07005KT P6SM SKC=



000
FTUS44 KBMX 201700 RRA
TAFANB
TAF
KANB 201740Z 2018/2118 05005KT P6SM SKC=



000
FTUS44 KBMX 201700 RRA
TAFMGM
TAF
KMGM 201740Z 2018/2118 05009KT P6SM SCT040
     FM210000 00000KT P6SM SKC=



000
FTUS44 KBMX 201700 RRA
TAFTOI
TAF
KTOI 201740Z 2018/2118 05008KT P6SM OVC025
     FM202000 05008KT P6SM BKN040
     FM210100 00000KT P6SM SKC=



000
FTUS44 KBMX 201700 RRA
TAFTCL
TAF
KTCL 201740Z 2018/2118 10004KT P6SM SKC=



000
FTUS44 KBMX 201700 RRA
TAFBHM
TAF
KBHM 201740Z 2018/2118 07006KT P6SM SKC=



000
FTUS44 KBMX 201400 AAA
TAFTOI
TAF AMD
KTOI 201402Z 2014/2112 06007KT P6SM OVC016
     FM201600 05007KT P6SM OVC025
     FM201800 04012KT P6SM BKN040
     FM210200 00000KT P6SM SKC=



000
FTUS44 KBMX 201400 AAA
TAFMGM
TAF AMD
KMGM 201402Z 2014/2112 05012KT P6SM OVC025
     FM201630 06012KT P6SM BKN040
     FM210000 05002KT P6SM SKC=



000
FTUS44 KBMX 201100
TAFTCL
TAF
KTCL 201135Z 2012/2112 10005KT P6SM SKC=



000
FTUS44 KBMX 201100
TAFTOI
TAF
KTOI 201135Z 2012/2112 03007KT P6SM OVC025
     FM201500 04012KT P6SM BKN040
     FM210200 00000KT P6SM SKC=



000
FTUS44 KBMX 201100
TAFANB
TAF
KANB 201135Z 2012/2112 07006KT P6SM SKC=



000
FTUS44 KBMX 201100
TAFMGM
TAF
KMGM 201135Z 2012/2112 04008KT P6SM BKN025
     FM201400 06012KT P6SM BKN040
     FM210000 05002KT P6SM SKC=



000
FTUS44 KBMX 201100
TAFEET
TAF
KEET 201135Z 2012/2112 09007KT P6SM SKC
     FM210000 00000KT P6SM SKC=



000
FTUS44 KBMX 201100
TAFBHM
TAF
KBHM 201135Z 2012/2112 07007KT P6SM SKC
     FM210300 13002KT P6SM SKC=



000
FTUS44 KBMX 200600 AAA
TAFMGM
TAF AMD
KMGM 200628Z 2006/2106 07009KT P6SM SCT060
     FM200800 04007KT P6SM BKN025
     FM201800 06012KT P6SM BKN040=



000
FTUS44 KBMX 200600 AAA
TAFTOI
TAF AMD
KTOI 200627Z 2006/2106 03005KT P6SM OVC025
     FM201800 04012KT P6SM BKN040=



000
FTUS44 KBMX 200500
TAFBHM
TAF
KBHM 200522Z 2006/2106 03005KT P6SM SKC
     FM201500 07007KT P6SM SKC=



000
FTUS44 KBMX 200500
TAFEET
TAF
KEET 200522Z 2006/2106 05003KT P6SM SKC
     FM201500 07007KT P6SM SKC=



000
FTUS44 KBMX 200500
TAFMGM
TAF
KMGM 200522Z 2006/2106 07009KT P6SM SCT060
     FM201100 04007KT P6SM BKN025
     FM201800 06012KT P6SM BKN040=



000
FTUS44 KBMX 200500
TAFTCL
TAF
KTCL 200522Z 2006/2106 00000KT P6SM SKC
     FM201500 10005KT P6SM SKC=



000
FTUS44 KBMX 200500
TAFANB
TAF
KANB 200522Z 2006/2106 08007KT P6SM BKN080
     FM201100 07006KT P6SM SKC=



000
FTUS44 KBMX 200500
TAFTOI
TAF
KTOI 200522Z 2006/2106 03006KT P6SM SCT030
     FM200900 03005KT P6SM OVC025
     FM201800 04012KT P6SM BKN040=



000
FTUS44 KBMX 192300
TAFEET
TAF
KEET 192331Z 2000/2024 01008KT P6SM SKC
     FM200300 36004KT P6SM SKC
     FM201500 07007KT P6SM SKC=



000
FTUS44 KBMX 192300
TAFMGM
TAF
KMGM 192331Z 2000/2024 05009G18KT P6SM BKN050
     FM200300 03006KT P6SM BKN070
     FM200600 03004KT 5SM BR BKN025 BKN070
     FM201500 06010KT P6SM BKN040=



000
FTUS44 KBMX 192300
TAFTOI
TAF
KTOI 192331Z 2000/2024 01009G18KT P6SM VCSH BKN035 OVC050
     FM200300 02006KT P6SM BKN040 BKN070
     FM200600 02004KT 5SM BR OVC025
     FM201500 05010KT P6SM BKN040=



000
FTUS44 KBMX 192300
TAFTCL
TAF
KTCL 192331Z 2000/2024 05008KT P6SM SKC
     FM200300 03004KT P6SM SKC
     FM201500 07005KT P6SM SKC=



000
FTUS44 KBMX 192300
TAFANB
TAF
KANB 192331Z 2000/2024 36013G18KT P6SM SCT060 BKN080
     FM200300 05008KT P6SM BKN080
     FM200900 07006KT P6SM SCT080=



000
FTUS44 KBMX 192300
TAFBHM
TAF
KBHM 192331Z 2000/2024 04016G25KT P6SM SKC
     FM200300 07006KT P6SM SKC
     FM201500 09007KT P6SM SKC=



000
FTUS44 KBMX 191700
TAFANB
TAF
KANB 191725Z 1918/2018 03008G16KT P6SM OVC060
     FM200000 03003KT P6SM BKN080
     FM200600 00000KT P6SM SKC=



000
FTUS44 KBMX 191700
TAFBHM
TAF
KBHM 191725Z 1918/2018 02010G18KT P6SM BKN050
     FM200000 00000KT P6SM SKC=



000
FTUS44 KBMX 191700
TAFEET
TAF
KEET 191725Z 1918/2018 36008KT P6SM BKN050
     FM200000 00000KT P6SM SKC=



000
FTUS44 KBMX 191700
TAFMGM
TAF
KMGM 191725Z 1918/2018 36010KT P6SM BKN060
     FM200000 03006KT P6SM BKN080
     FM200500 04004KT P6SM SKC=



000
FTUS44 KBMX 191700
TAFTOI
TAF
KTOI 191725Z 1918/2018 01012G20KT P6SM OVC040
     FM200000 02005KT P6SM OVC040
     FM200700 03005KT P6SM OVC025=



000
FTUS44 KBMX 191700
TAFTCL
TAF
KTCL 191725Z 1918/2018 01010G18KT P6SM FEW050
     FM200000 00000KT P6SM SKC=



000
FTUS44 KBMX 191600 AAA
TAFMGM
TAF AMD
KMGM 191610Z 1916/2012 01010KT P6SM SCT050
     FM200000 03006KT P6SM SCT040
     FM200600 04004KT P6SM SKC=



000
FTUS44 KBMX 191600 AAA
TAFTOI
TAF AMD
KTOI 191609Z 1916/2012 35015G25KT P6SM BKN025
     FM192300 01004KT P6SM SCT040
     FM200600 04004KT P6SM SKC=



000
FTUS44 KBMX 191100
TAFEET
TAF
KEET 191120Z 1912/2012 02005KT P6SM VCSH OVC050
     FM191500 01010G18KT P6SM SCT050 OVC080
     FM200000 04003KT P6SM SCT050
     FM200300 00000KT P6SM SKC=



000
FTUS44 KBMX 191100
TAFTCL
TAF
KTCL 191120Z 1912/2012 00000KT P6SM BKN050
     FM191400 01008G16KT P6SM SCT060
     FM192100 02007KT P6SM SCT050
     FM200000 04004KT P6SM SKC=



000
FTUS44 KBMX 191100
TAFBHM
TAF
KBHM 191120Z 1912/2012 02005KT P6SM VCSH OVC050
     FM191400 01010G18KT P6SM SCT050 OVC080
     FM200000 04003KT P6SM SCT050
     FM200300 00000KT P6SM SKC=



000
FTUS44 KBMX 191100
TAFMGM
TAF
KMGM 191120Z 1912/2012 35011KT 6SM -SHRA BR BKN035 OVC080
      TEMPO 1913/1917 01012G22KT 3SM -SHRA OVC025
     FM191800 01012G22KT P6SM SCT040
     FM200000 03006KT P6SM SCT040
     FM200600 04004KT P6SM SKC=



000
FTUS44 KBMX 191100
TAFANB
TAF
KANB 191120Z 1912/2012 06004KT 6SM -SHRA BR OVC040
     FM191800 06008G16KT P6SM VCSH OVC060
     FM200000 03003KT P6SM SCT050
     FM200600 00000KT P6SM SKC=



000
FTUS44 KBMX 191100
TAFTOI
TAF
KTOI 191120Z 1912/2012 36012G22KT 4SM -SHRA OVC012
     FM191800 01015G25KT P6SM BKN025
     FM192300 01004KT P6SM SCT040
     FM200600 04004KT P6SM SKC=



000
FTUS44 KBMX 191000 AAA
TAFTCL
TAF AMD
KTCL 191040Z 1911/2006 00000KT P6SM SCT025 OVC050
      TEMPO 1911/1913 4SM BR
     FM191400 01008G16KT P6SM SCT060
     FM200000 02003KT P6SM SCT050=



000
FTUS44 KBMX 191000 AAB
TAFMGM
TAF AMD
KMGM 191037Z 1911/2006 35011KT 3SM -SHRA BR BKN030 OVC080
     FM191300 01012G22KT P6SM OVC025
     FM191800 01012G22KT P6SM SCT040
     FM200000 03006KT P6SM SCT040=



000
FTUS44 KBMX 190800 AAA
TAFMGM
TAF AMD
KMGM 190805Z 1908/2006 35011KT 6SM -SHRA BR BKN050 OVC080
     FM191300 01012G22KT P6SM OVC025
     FM191800 01012G22KT P6SM SCT040
     FM200000 03006KT P6SM SCT040=



000
FTUS44 KBMX 190500
TAFANB
TAF
KANB 190520Z 1906/2006 06004KT 6SM -SHRA BR OVC040
     FM191400 06008G16KT P6SM OVC060
     FM200000 03003KT P6SM SCT030=



000
FTUS44 KBMX 190500
TAFTCL
TAF
KTCL 190520Z 1906/2006 00000KT P6SM SCT025 OVC050
      TEMPO 1909/1913 4SM BR
     FM191400 01008G16KT P6SM SCT060
     FM200000 02003KT P6SM SCT050=



000
FTUS44 KBMX 190500
TAFEET
TAF
KEET 190520Z 1906/2006 02005KT 6SM -SHRA BR OVC050
     FM191300 36008KT P6SM SCT050 OVC080
     FM200000 00000KT P6SM SCT030=



000
FTUS44 KBMX 190500
TAFBHM
TAF
KBHM 190520Z 1906/2006 02005KT P6SM VCSH OVC050
     FM191300 01010G18KT P6SM SCT050 OVC080
     FM200000 04003KT P6SM SCT030=



000
FTUS44 KBMX 190500
TAFTOI
TAF
KTOI 190520Z 1906/2006 35010KT 6SM BR VCSH OVC015
     FM191300 36012G22KT P6SM OVC020
     FM191800 01015G25KT P6SM SCT040
     FM200000 01004KT P6SM SCT040=



000
FTUS44 KBMX 190500
TAFMGM
TAF
KMGM 190520Z 1906/2006 35011KT 6SM -SHRA BR BKN050 OVC080
     FM190800 35011KT P6SM SCT007 OVC015
     FM191300 01012G22KT P6SM OVC025
     FM191800 01012G22KT P6SM SCT040
     FM200000 03006KT P6SM SCT040=



000
FTUS44 KBMX 190300 AAA
TAFANB
TAF AMD
KANB 190309Z 1903/1924 06004KT P6SM -RA BKN050
     FM190600 06006KT 6SM BR OVC015
     FM191200 04006KT P6SM OVC025
     FM191400 06008G16KT P6SM OVC040=



000
FTUS44 KBMX 190300 AAA
TAFEET
TAF AMD
KEET 190308Z 1903/1924 02007KT P6SM VCSH SCT020 OVC080
     FM190600 02005KT P6SM OVC015
     FM191300 36010G18KT P6SM SCT020 OVC080=



000
FTUS44 KBMX 190300 AAA
TAFTOI
TAF AMD
KTOI 190304Z 1903/1924 35010KT 6SM BR OVC015
     FM191300 36012G22KT P6SM OVC020
     FM191800 01015G25KT P6SM SCT040=



000
FTUS44 KBMX 182300 CCA
TAFEET
TAF COR
KEET 182349Z 1900/1924 02007KT P6SM VCSH SCT020 OVC080
     FM190200 02005KT P6SM OVC015
     FM191300 36010G18KT P6SM SCT020 OVC080=



000
FTUS44 KBMX 182300 CCA
TAFTOI
TAF COR
KTOI 182349Z 1900/1924 05010G20KT 6SM BR VCSH SCT007 OVC015
     FM190300 35010KT 5SM -DZ BR OVC009
     FM191300 36012G22KT P6SM OVC020
     FM191800 01015G25KT P6SM SCT040=



000
FTUS44 KBMX 182300
TAFTCL
TAF
KTCL 182325Z 1900/1924 03005KT P6SM SCT025 OVC050
     FM191400 01008G16KT P6SM SCT060=



000
FTUS44 KBMX 182300
TAFMGM
TAF
KMGM 182325Z 1900/1924 01008KT 6SM BR VCSH SCT008 OVC015
     FM190300 35011KT 5SM -DZ BR OVC009
     FM191300 01012G22KT P6SM OVC025
     FM191800 01012G22KT P6SM SCT040=



000
FTUS44 KBMX 182300
TAFTOI
TAF
KTOI 182325Z 1900/1924 05015G25KT 6SM BR VCSH SCT007 OVC015
     FM190300 35010KT 5SM -DZ BR OVC009
     FM191300 36012G22KT P6SM OVC020
     FM191800 01015G25KT P6SM SCT040=



000
FTUS44 KBMX 182300
TAFBHM
TAF
KBHM 182325Z 1900/1924 06007KT P6SM VCSH OVC080
     FM190200 02005KT P6SM OVC050
     FM191300 01010G18KT P6SM SCT020 OVC080=



000
FTUS44 KBMX 182300
TAFANB
TAF
KANB 182325Z 1900/1924 06004KT P6SM -RA BKN050
     FM190200 06006KT 6SM BR OVC015
     FM191200 04006KT P6SM OVC025
     FM191400 06008G16KT P6SM OVC040=



000
FTUS44 KBMX 182300
TAFEET
TAF
KEET 182325Z 1900/1924 02007KT P6SM VCSH BKN020 OVC080
     FM190200 02005KT P6SM OVC015
     FM191300 36010G18KT P6SM SCT020 OVC080=



000
FTUS44 KBMX 182200 AAA
TAFEET
TAF AMD
KEET 182220Z 1822/1918 04007KT P6SM VCSH BKN020 OVC080
     FM190200 02005KT P6SM OVC012
     FM191300 36010G20KT P6SM SCT020 OVC080=



000
FTUS44 KBMX 182200 AAA
TAFANB
TAF AMD
KANB 182220Z 1822/1918 05009KT P6SM -RA OVC020
     FM190000 36007KT 5SM -DZ BR OVC010
     FM190900 36006KT P6SM OVC015
     FM191400 04010KT P6SM OVC025=



000
FTUS44 KBMX 182200 AAA
TAFMGM
TAF AMD
KMGM 182217Z 1822/1918 02015G25KT 6SM -RA BR BKN008 OVC015
     FM190300 35011KT 5SM -DZ BR OVC009
     FM191300 01012G22KT P6SM OVC025=



000
FTUS44 KBMX 182200 AAA
TAFTOI
TAF AMD
KTOI 182216Z 1822/1918 04015G25KT 6SM -RA BR BKN007 OVC015
     FM190300 35010KT 5SM -DZ BR OVC009
     FM191300 36012G22KT P6SM OVC020=



000
FTUS44 KBMX 181700
TAFBHM
TAF
KBHM 181738Z 1818/1918 06007KT P6SM -RA OVC080
     FM190200 02005KT P6SM OVC015
     FM191300 01012G22KT P6SM SCT020 OVC080=



000
FTUS44 KBMX 181700
TAFTCL
TAF
KTCL 181738Z 1818/1918 04007KT 6SM -RA BR OVC012
     FM182300 03005KT P6SM BKN025 OVC050
     FM191200 01012G20KT P6SM SCT040=



000
FTUS44 KBMX 181700
TAFANB
TAF
KANB 181738Z 1818/1918 05009KT P6SM -RA OVC080
     FM190000 36007KT 5SM -DZ BR OVC010
     FM190900 36006KT P6SM OVC015
     FM191400 04010KT P6SM OVC025=



000
FTUS44 KBMX 181700
TAFTOI
TAF
KTOI 181738Z 1818/1918 02012KT 4SM -RA BR SCT008 OVC015
      TEMPO 1818/1821 2SM RA BR BKN008 OVC012
     FM182100 02012KT 6SM -RA BR OVC015
     FM190300 35010KT 5SM -DZ BR OVC009
     FM191300 36012G22KT P6SM OVC020=



000
FTUS44 KBMX 181700
TAFMGM
TAF
KMGM 181738Z 1818/1918 03009KT 4SM -RA BR SCT008 OVC015
      TEMPO 1818/1821 2SM RA BR BKN008 OVC012
     FM182100 03010KT 6SM -RA BR OVC015
     FM190300 35011KT 5SM -DZ BR OVC009
     FM191300 01012G22KT P6SM OVC025=



000
FTUS44 KBMX 181700
TAFEET
TAF
KEET 181738Z 1818/1918 05008KT 4SM -RA BR SCT008 OVC060
     FM181830 04007KT P6SM -RA SCT015 OVC080
     FM190200 02005KT P6SM OVC012
     FM191300 36010G20KT P6SM SCT020 OVC080=



000
FTUS44 KBMX 181600 AAA
TAFTOI
TAF AMD
KTOI 181618Z 1816/1912 05010G20KT 6SM -RA BR OVC010
      TEMPO 1817/1820 3SM RA BR OVC007
     FM182000 03017G25KT 5SM RA BR BKN007 OVC015
     FM190300 36012KT 5SM -RA BR OVC007=



000
FTUS44 KBMX 181600 AAA
TAFMGM
TAF AMD
KMGM 181616Z 1816/1912 05009G18KT 4SM RA BR OVC015
     FM190600 01011KT 6SM -RA OVC015=



000
FTUS44 KBMX 181600 AAA
TAFANB
TAF AMD
KANB 181609Z 1816/1912 06010G18KT 6SM -RA BR OVC060
     FM190300 06012G20KT P6SM BKN025 OVC050
     FM190900 01005KT P6SM SCT050=



000
FTUS44 KBMX 181600 AAC
TAFBHM
TAF AMD
KBHM 181607Z 1816/1912 08010G18KT 6SM -RA BR OVC080
     FM190300 06012G20KT P6SM BKN025 OVC050
     FM190900 01005KT P6SM SCT050=



000
FTUS44 KBMX 181300 AAA
TAFTCL
TAF AMD
KTCL 181321Z 1813/1912 04007KT 4SM -RA BR OVC015
     FM190300 06012G20KT P6SM BKN025 OVC050
     FM190900 01005KT P6SM SCT050=



000
FTUS44 KBMX 181300 AAA
TAFEET
TAF AMD
KEET 181320Z 1813/1912 08007KT 2SM -RA BR BKN025 OVC040
     FM181400 06010G18KT 4SM -RA BR OVC015
     FM190300 06012G20KT P6SM BKN025 OVC050
     FM190900 01005KT P6SM SCT050=



000
FTUS44 KBMX 181300 AAB
TAFBHM
TAF AMD
KBHM 181319Z 1813/1912 05007KT 6SM -RA BR SCT025 OVC040
     FM181500 06010G18KT 4SM -RA OVC015
     FM190300 06012G20KT P6SM BKN025 OVC050
     FM190900 01005KT P6SM SCT050=



000
FTUS44 KBMX 181200 AAA
TAFBHM
TAF AMD
KBHM 181251Z 1813/1912 10009G18KT 4SM -RA BR SCT025 OVC040
     FM181500 06010G18KT 4SM -RA OVC015
     FM190300 06012G20KT P6SM BKN025 OVC050
     FM190900 01005KT P6SM SCT050=



000
FTUS44 KBMX 181100
TAFANB
TAF
KANB 181133Z 1812/1912 07005KT 6SM -RA BR SCT025 OVC040
     FM181400 06010G18KT 4SM -RA OVC015
     FM190300 06012G20KT P6SM BKN025 OVC050
     FM190900 01005KT P6SM SCT050=



000
FTUS44 KBMX 181100
TAFMGM
TAF
KMGM 181133Z 1812/1912 07012G20KT 4SM RA BR BKN007 OVC015
     FM181800 03017G25KT 5SM RA BR BKN007 OVC015
     FM190600 01011KT 6SM -RA OVC015=



000
FTUS44 KBMX 181100
TAFBHM
TAF
KBHM 181133Z 1812/1912 10009G18KT 6SM -RA BR SCT025 OVC040
     FM181400 06010G18KT 4SM -RA OVC015
     FM190300 06012G20KT P6SM BKN025 OVC050
     FM190900 01005KT P6SM SCT050=



000
FTUS44 KBMX 181100
TAFTOI
TAF
KTOI 181133Z 1812/1912 08008KT 6SM RA OVC009
     FM181500 05015G24KT 3SM RA BR OVC007
     FM181900 03017G25KT 5SM RA BR BKN007 OVC015
     FM190300 36012KT 5SM -RA BR OVC007=



000
FTUS44 KBMX 181100
TAFTCL
TAF
KTCL 181133Z 1812/1912 08006KT 6SM -RA BR OVC025
     FM181400 06010G18KT 4SM -RA OVC015
     FM190300 06012G20KT P6SM BKN025 OVC050
     FM190900 01005KT P6SM SCT050=



000
FTUS44 KBMX 181100
TAFEET
TAF
KEET 181133Z 1812/1912 09009KT 4SM -RA BR SCT025 OVC040
     FM181400 06010G18KT 4SM -RA OVC015
     FM190300 06012G20KT P6SM BKN025 OVC050
     FM190900 01005KT P6SM SCT050=



000
FTUS44 KBMX 180900 AAA
TAFTOI
TAF AMD
KTOI 180932Z 1810/1906 06006KT 4SM -RA BKN008 OVC015
     FM181400 05015G24KT 4SM RA BR OVC007
     FM181900 03012G22KT 5SM -SHRA OVC015=



000
FTUS44 KBMX 180500
TAFANB
TAF
KANB 180520Z 1806/1906 06007KT P6SM BKN050 OVC120
     FM181000 06009KT P6SM VCSH OVC040
     FM181300 06010KT 5SM -RA OVC030=



000
FTUS44 KBMX 180500
TAFTCL
TAF
KTCL 180520Z 1806/1906 11006KT P6SM BKN050 OVC120
     FM180800 08007KT P6SM VCSH OVC040
     FM190000 04004KT P6SM SCT050 BKN250=



000
FTUS44 KBMX 180500
TAFTOI
TAF
KTOI 180520Z 1806/1906 06006KT P6SM VCSH OVC025
     FM180700 06012KT 4SM -RA OVC015
     FM181100 05015G24KT 4SM RA BR OVC007
     FM181900 03012G22KT 5SM -SHRA OVC015=



000
FTUS44 KBMX 180500
TAFEET
TAF
KEET 180520Z 1806/1906 11004KT P6SM SCT050 OVC120
     FM180800 09007KT P6SM VCSH OVC050
     FM181200 04010KT P6SM -SHRA OVC035=



000
FTUS44 KBMX 180500
TAFMGM
TAF
KMGM 180520Z 1806/1906 09009KT P6SM BKN040
     FM180700 06012KT P6SM VCSH OVC025
     FM180900 06012G20KT 4SM -RA OVC012
     FM181200 06014G24KT 4SM -RA BR OVC007
     FM182000 04012G20KT 5SM -SHRA OVC015=



000
FTUS44 KBMX 180500
TAFBHM
TAF
KBHM 180520Z 1806/1906 11009KT P6SM SCT050 OVC120
     FM180900 07010KT P6SM VCSH OVC050
     FM181300 06009KT P6SM -SHRA OVC040=



000
FTUS44 KBMX 172300
TAFTCL
TAF
KTCL 172325Z 1800/1824 11006KT P6SM BKN050 OVC120
     FM180800 08007KT P6SM VCSH OVC040=



000
FTUS44 KBMX 172300
TAFBHM
TAF
KBHM 172325Z 1800/1824 11005KT P6SM SCT050 OVC120
     FM181000 07007KT P6SM VCSH OVC050
     FM181300 06008KT P6SM -SHRA OVC040=



000
FTUS44 KBMX 172300
TAFMGM
TAF
KMGM 172325Z 1800/1824 09009KT P6SM BKN040
     FM180700 06012KT P6SM VCSH OVC025
     FM181000 06012G20KT 4SM -RA OVC012
     FM181200 06014G24KT 4SM -RA BR OVC007
     FM182000 04012G20KT 5SM -SHRA OVC015=



000
FTUS44 KBMX 172300
TAFANB
TAF
KANB 172325Z 1800/1824 09007KT P6SM BKN050 OVC120
     FM181000 06009KT P6SM VCSH OVC040
     FM181300 06010KT 5SM -RA OVC040=



000
FTUS44 KBMX 172300
TAFEET
TAF
KEET 172325Z 1800/1824 11004KT P6SM SCT050 OVC120
     FM180900 09007KT P6SM VCSH OVC050
     FM181200 06008KT P6SM -SHRA OVC035=



000
FTUS44 KBMX 172300
TAFTOI
TAF
KTOI 172325Z 1800/1824 08007KT P6SM OVC040
     FM180500 06006KT P6SM VCSH OVC025
     FM180800 06012KT 4SM -RA OVC007
     FM181300 05015G24KT 4SM RA BR OVC007
     FM181900 03012G22KT 5SM -SHRA OVC015=



    US Dept of Commerce
    National Oceanic and Atmospheric Administration
    National Weather Service
    1325 East West Highway
    Silver Spring, MD 20910
    Page Author: NWS Internet Services Team
Disclaimer
Information Quality
Credits
Glossary
Privacy Policy
Freedom of Information Act (FOIA)
About Us
Career Opportunities